Terminal Aerodrome Forecast
Issued by NWS New Orleans/Baton Rouge, LA

Home | Current Version | Previous Version | Text Only | Print | Product List | Glossary On
Versions: 1 2 3 4 5 6 7 8 9 10 11 12 13
000
FTUS44 KLIX 220520
TAFNEW
TAF
KNEW 220520Z 2206/2306 VRB03KT P6SM FEW025 SCT150
     FM221400 08005KT P6SM SCT030 BKN200 PROB30 2217/2223 4SM -TSRA
      BKN025CB
     FM230400 18006KT P6SM SCT030 BKN100=

USA.gov is the U.S. government's official web portal to all federal, state and local government web resources and services.